Terminal Aerodrome Forecast
Issued by NWS

Home | Current Version | Previous Version | Text Only | Print | Product List | Glossary On
Versions: 1 2 3 4 5 6 7 8 9 10 11 12
000
FTUS45 KABQ 180500
TAFGUP
TAF
KGUP 180524Z 1806/1906 VRB03KT P6SM SCT250
     FM181700 20012KT P6SM SCT120 BKN200
     FM182100 22013G21KT P6SM BKN100
     FM190200 20011KT P6SM BKN080=

USA.gov is the U.S. government's official web portal to all federal, state and local government web resources and services.